createdAt,value
2023-05-15T00:00:29.633Z,100713.16
2023-05-15T00:02:57.176Z,100595.13
2023-05-15T00:05:23.962Z,100590.91
2023-05-15T00:07:50.564Z,100669.13
2023-05-15T00:10:17.085Z,100647.94
2023-05-15T00:12:43.572Z,100580.31
2023-05-15T00:15:10.371Z,100699.81
2023-05-15T00:17:36.803Z,100540.00
2023-05-15T00:20:04.781Z,100623.75
2023-05-15T00:22:31.159Z,100598.09
2023-05-15T00:24:59.072Z,100716.34
2023-05-15T00:27:26.564Z,100533.56
2023-05-15T00:29:53.037Z,100606.50
2023-05-15T00:32:22.517Z,100663.03
2023-05-15T00:34:50.088Z,100664.78
2023-05-15T00:37:19.468Z,100715.78
2023-05-15T00:39:46.021Z,100543.22
2023-05-15T00:42:13.346Z,100632.63
2023-05-15T00:44:41.398Z,100641.75
2023-05-15T00:47:10.978Z,100471.63
2023-05-15T00:49:37.928Z,100710.56
2023-05-15T00:52:08.155Z,100669.47
2023-05-15T00:54:35.086Z,100478.88
2023-05-15T00:57:05.188Z,100616.44
2023-05-15T00:59:32.584Z,100578.13
2023-05-15T01:01:58.987Z,100593.56
2023-05-15T01:04:25.553Z,100572.22
2023-05-15T01:06:54.956Z,100664.00
2023-05-15T01:09:24.679Z,100570.31
2023-05-15T01:11:57.380Z,100618.13
2023-05-15T01:14:23.859Z,100619.97
2023-05-15T01:16:50.331Z,100682.13
2023-05-15T01:19:19.261Z,100626.03
2023-05-15T01:22:20.009Z,100699.06
2023-05-15T01:25:14.312Z,100698.59
2023-05-15T01:27:51.606Z,100697.59
2023-05-15T01:30:30.566Z,100701.28
2023-05-15T01:33:24.528Z,100690.84
2023-05-15T01:36:01.506Z,100699.69
2023-05-15T01:38:35.274Z,100697.47
2023-05-15T01:41:16.408Z,100602.47
2023-05-15T01:43:52.135Z,100684.06
2023-05-15T01:46:23.279Z,100689.91
2023-05-15T01:48:51.965Z,100521.22
2023-05-15T01:51:20.950Z,100599.78
2023-05-15T01:53:49.356Z,100626.63
2023-05-15T01:56:19.919Z,100711.09
2023-05-15T01:58:48.132Z,100544.66
2023-05-15T02:01:16.698Z,100678.09
2023-05-15T02:03:47.109Z,100583.50
2023-05-15T02:06:14.308Z,100696.88
2023-05-15T02:08:42.534Z,100618.69
2023-05-15T02:11:09.606Z,100631.59
2023-05-15T02:13:38.257Z,100528.16
2023-05-15T02:16:04.982Z,100551.59
2023-05-15T02:18:31.527Z,100696.78
2023-05-15T02:20:58.108Z,100613.88
2023-05-15T02:23:24.537Z,100531.50
2023-05-15T02:25:57.081Z,100708.59
2023-05-15T02:28:46.867Z,100611.69
2023-05-15T02:31:29.822Z,100672.34
2023-05-15T02:34:08.315Z,100704.13
2023-05-15T02:36:40.164Z,100545.50
2023-05-15T02:39:07.767Z,100567.56
2023-05-15T02:41:36.696Z,100653.31
2023-05-15T02:44:03.791Z,100594.78
2023-05-15T02:46:30.849Z,100708.91
2023-05-15T02:48:57.856Z,100484.53
2023-05-15T02:51:24.272Z,100579.91
2023-05-15T02:53:54.887Z,100600.16
2023-05-15T02:56:22.231Z,100705.59
2023-05-15T02:58:49.579Z,100522.19
2023-05-15T03:01:16.210Z,100712.03
2023-05-15T03:03:46.317Z,100697.00
2023-05-15T03:06:12.752Z,100691.72
2023-05-15T03:08:39.095Z,100514.31
2023-05-15T03:11:06.043Z,100576.38
2023-05-15T03:13:32.431Z,100496.94
2023-05-15T03:15:58.778Z,100614.25
2023-05-15T03:18:25.140Z,100658.50
2023-05-15T03:20:52.764Z,100602.34
2023-05-15T03:23:19.417Z,100651.25
2023-05-15T03:25:45.770Z,100586.09
2023-05-15T03:28:12.151Z,100620.22
2023-05-15T03:30:38.521Z,100593.59
2023-05-15T03:33:07.789Z,100678.22
2023-05-15T03:35:36.035Z,100504.69
2023-05-15T03:38:02.578Z,100682.28
2023-05-15T03:40:31.313Z,100648.28
2023-05-15T03:42:58.252Z,100700.03
2023-05-15T03:45:24.953Z,100569.22
2023-05-15T03:47:51.675Z,100645.28
2023-05-15T03:50:18.121Z,100601.81
2023-05-15T03:52:44.622Z,100671.06
2023-05-15T03:55:11.188Z,100652.16
2023-05-15T03:57:39.159Z,100592.22
2023-05-15T04:00:09.979Z,100615.94
2023-05-15T04:02:37.354Z,100589.06
2023-05-15T04:05:05.251Z,100680.31
2023-05-15T04:07:33.416Z,100686.41
2023-05-15T04:10:01.597Z,100596.59
2023-05-15T04:12:35.383Z,100682.03
2023-05-15T04:15:23.025Z,100581.16
2023-05-15T04:17:52.930Z,100650.78
2023-05-15T04:20:21.973Z,100543.66
2023-05-15T04:22:48.670Z,100712.34
2023-05-15T04:25:17.884Z,100712.91
2023-05-15T04:27:44.840Z,100698.25
2023-05-15T04:30:13.439Z,100637.06
2023-05-15T04:32:40.845Z,100597.09
2023-05-15T04:35:10.222Z,100638.25
2023-05-15T04:37:37.336Z,100711.16
2023-05-15T04:40:04.235Z,100625.97
2023-05-15T04:42:30.824Z,100690.03
2023-05-15T04:44:57.500Z,100696.44
2023-05-15T04:47:23.853Z,100624.56
2023-05-15T04:49:50.248Z,100598.34
2023-05-15T04:52:17.435Z,100724.06
2023-05-15T04:54:43.842Z,100683.84
2023-05-15T04:57:10.500Z,100701.25
2023-05-15T04:59:36.938Z,100705.25
2023-05-15T05:02:03.486Z,100710.81
2023-05-15T05:04:29.870Z,100660.16
2023-05-15T05:06:56.297Z,100721.59
2023-05-15T05:09:22.689Z,100623.34
2023-05-15T05:11:49.090Z,100723.81
2023-05-15T05:14:15.754Z,100691.50
2023-05-15T05:16:44.889Z,100675.97
2023-05-15T05:19:11.744Z,100710.97
2023-05-15T05:21:38.266Z,100687.09
2023-05-15T05:24:04.708Z,100731.94
2023-05-15T05:26:31.110Z,100608.94
2023-05-15T05:28:57.515Z,100694.72
2023-05-15T05:31:23.998Z,100583.16
2023-05-15T05:33:51.285Z,100701.47
2023-05-15T05:36:17.654Z,100697.09
2023-05-15T05:38:44.043Z,100700.56
2023-05-15T05:41:10.484Z,100619.38
2023-05-15T05:43:36.887Z,100677.66
2023-05-15T05:46:03.280Z,100693.44
2023-05-15T05:48:30.700Z,100685.38
2023-05-15T05:50:57.857Z,100728.03
2023-05-15T05:53:24.276Z,100713.09
2023-05-15T05:55:50.884Z,100684.66
2023-05-15T06:00:50.783Z,100701.06
2023-05-15T06:03:17.320Z,100733.19
2023-05-15T06:05:43.856Z,100709.34
2023-05-15T06:08:10.276Z,100719.09
2023-05-15T06:10:36.692Z,100692.47
2023-05-15T06:13:03.077Z,100707.47
2023-05-15T06:15:29.430Z,100728.03
2023-05-15T06:17:55.866Z,100697.22
2023-05-15T06:20:22.997Z,100740.19
2023-05-15T06:22:49.501Z,100731.59
2023-05-15T06:25:15.978Z,100756.59
2023-05-15T06:27:42.501Z,100752.63
2023-05-15T06:30:09.622Z,100733.16
2023-05-15T06:32:36.390Z,100753.09
2023-05-15T06:35:03.235Z,100667.81
2023-05-15T06:37:30.444Z,100715.72
2023-05-15T06:39:56.799Z,100656.00
2023-05-15T06:42:23.556Z,100744.00
2023-05-15T06:44:50.002Z,100769.56
2023-05-15T06:47:16.611Z,100736.47
2023-05-15T06:49:43.007Z,100733.69
2023-05-15T06:52:09.375Z,100675.16
2023-05-15T06:54:35.766Z,100665.13
2023-05-15T06:57:02.166Z,100605.38
2023-05-15T06:59:28.640Z,100703.63
2023-05-15T07:01:55.796Z,100746.75
2023-05-15T07:04:22.257Z,100702.84
2023-05-15T07:06:48.628Z,100655.19
2023-05-15T07:09:14.955Z,100753.81
2023-05-15T07:11:42.132Z,100676.41
2023-05-15T07:14:08.692Z,100701.97
2023-05-15T07:16:35.123Z,100732.81
2023-05-15T07:19:01.718Z,100648.13
2023-05-15T07:21:28.183Z,100736.06
2023-05-15T07:23:54.527Z,100730.69
2023-05-15T07:26:32.558Z,100666.69
2023-05-15T07:29:03.937Z,100735.66
2023-05-15T07:31:31.415Z,100752.44
2023-05-15T07:33:57.806Z,100755.63
2023-05-15T07:36:24.249Z,100659.81
2023-05-15T07:38:50.621Z,100714.66
2023-05-15T07:41:16.970Z,100733.06
2023-05-15T07:43:43.343Z,100724.84
2023-05-15T07:46:09.703Z,100695.75
2023-05-15T07:48:36.071Z,100722.78
2023-05-15T07:51:02.782Z,100724.44
2023-05-15T07:53:29.353Z,100614.81
2023-05-15T07:55:55.693Z,100653.97
2023-05-15T07:58:23.130Z,100730.28
2023-05-15T08:00:49.508Z,100734.31
2023-05-15T08:03:16.063Z,100641.38
2023-05-15T08:05:42.617Z,100711.06
2023-05-15T08:08:08.966Z,100733.47
2023-05-15T08:10:35.365Z,100689.41
2023-05-15T08:13:01.739Z,100604.56
2023-05-15T08:15:29.158Z,100661.81
2023-05-15T08:17:55.681Z,100721.00
2023-05-15T08:20:22.182Z,100730.16
2023-05-15T08:22:48.583Z,100725.88
2023-05-15T08:25:14.997Z,100681.16
2023-05-15T08:27:41.328Z,100676.06
2023-05-15T08:30:08.445Z,100697.56
2023-05-15T08:32:34.817Z,100710.88
2023-05-15T08:35:01.371Z,100685.56
2023-05-15T08:37:27.725Z,100607.00
2023-05-15T08:39:54.059Z,100710.84
2023-05-15T08:42:49.764Z,100694.97
2023-05-15T08:45:16.163Z,100707.38
2023-05-15T08:47:43.844Z,100717.09
2023-05-15T08:50:14.714Z,100712.09
2023-05-15T08:52:43.450Z,100691.06
2023-05-15T08:55:11.061Z,100694.59
2023-05-15T08:57:38.634Z,100715.84
2023-05-15T09:00:09.328Z,100694.81
2023-05-15T09:02:37.363Z,100655.56
2023-05-15T09:05:06.145Z,100679.13
2023-05-15T09:07:33.116Z,100696.38
2023-05-15T09:10:01.351Z,100695.91
2023-05-15T09:12:27.880Z,100615.69
2023-05-15T09:15:18.122Z,100698.75
2023-05-15T09:17:45.912Z,100682.81
2023-05-15T09:20:35.427Z,100720.06
2023-05-15T09:23:04.013Z,100672.69
2023-05-15T09:25:44.787Z,100678.13
2023-05-15T09:28:29.010Z,100715.44
2023-05-15T09:31:01.460Z,100654.34
2023-05-15T09:33:58.651Z,100714.38
2023-05-15T09:36:24.970Z,100681.09
2023-05-15T09:39:01.318Z,100675.34
2023-05-15T09:41:28.238Z,100695.81
2023-05-15T09:43:56.811Z,100717.97
2023-05-15T09:46:24.143Z,100714.88
2023-05-15T09:48:55.237Z,100644.16
2023-05-15T09:51:22.115Z,100701.97
2023-05-15T09:53:50.765Z,100712.91
2023-05-15T09:56:17.740Z,100680.69
2023-05-15T09:58:57.687Z,100680.34
2023-05-15T10:01:25.757Z,100685.22
2023-05-15T10:04:03.616Z,100705.25
2023-05-15T10:06:37.495Z,100687.03
2023-05-15T10:09:04.530Z,100685.63
2023-05-15T10:11:34.906Z,100674.22
2023-05-15T10:14:02.598Z,100667.41
2023-05-15T10:16:30.120Z,100697.41
2023-05-15T10:18:57.911Z,100680.41
2023-05-15T10:21:26.737Z,100656.16
2023-05-15T10:23:54.951Z,100681.44
2023-05-15T10:26:28.212Z,100693.72
2023-05-15T10:28:56.216Z,100647.28
2023-05-15T10:31:23.566Z,100664.16
2023-05-15T10:33:51.514Z,100697.00
2023-05-15T10:36:19.558Z,100673.94
2023-05-15T10:38:47.443Z,100663.53
2023-05-15T10:41:17.914Z,100667.19
2023-05-15T10:43:44.605Z,100648.66
2023-05-15T10:46:13.215Z,100654.34
2023-05-15T10:48:40.204Z,100624.00
2023-05-15T10:51:17.540Z,100639.50
2023-05-15T10:53:45.279Z,100642.75
2023-05-15T10:56:17.023Z,100654.31
2023-05-15T10:58:51.351Z,100658.66
2023-05-15T11:01:35.029Z,100646.03
2023-05-15T11:04:16.190Z,100644.66
2023-05-15T11:06:44.902Z,100596.91
2023-05-15T11:09:34.304Z,100646.72
2023-05-15T11:12:05.324Z,100633.72
2023-05-15T11:15:00.596Z,100644.84
2023-05-15T11:17:27.042Z,100581.19
2023-05-15T11:19:53.310Z,100634.84
2023-05-15T11:22:27.561Z,100641.00
2023-05-15T11:24:53.887Z,100642.75
2023-05-15T11:27:26.509Z,100608.53
2023-05-15T11:30:15.091Z,100621.91
2023-05-15T11:32:55.009Z,100639.78
2023-05-15T11:35:27.368Z,100627.31
2023-05-15T11:38:10.807Z,100607.28
2023-05-15T11:40:46.377Z,100632.34
2023-05-15T11:43:23.387Z,100628.84
2023-05-15T11:45:58.006Z,100610.31
2023-05-15T11:48:31.328Z,100608.34
2023-05-15T11:50:57.729Z,100617.94
2023-05-15T11:53:24.524Z,100588.41
2023-05-15T11:55:52.751Z,100622.50
2023-05-15T11:58:21.052Z,100627.03
2023-05-15T12:00:48.447Z,100575.38
2023-05-15T12:03:33.375Z,100619.81
2023-05-15T12:06:01.941Z,100554.84
2023-05-15T12:08:33.414Z,100582.88
2023-05-15T12:11:01.011Z,100610.97
2023-05-15T12:13:27.683Z,100582.34
2023-05-15T12:15:55.588Z,100603.91
2023-05-15T12:18:22.033Z,100580.09
2023-05-15T12:20:49.729Z,100562.50
2023-05-15T12:23:17.427Z,100584.16
2023-05-15T12:25:46.114Z,100577.28
2023-05-15T12:28:12.919Z,100519.94
2023-05-15T12:30:40.166Z,100609.59
2023-05-15T12:33:08.652Z,100565.09
2023-05-15T12:35:36.325Z,100604.00
2023-05-15T12:38:06.957Z,100620.00
2023-05-15T12:40:34.411Z,100618.13
2023-05-15T12:43:05.992Z,100617.44
2023-05-15T12:45:37.316Z,100625.41
2023-05-15T12:48:04.122Z,100590.47
2023-05-15T12:50:33.182Z,100592.00
2023-05-15T12:53:03.126Z,100630.91
2023-05-15T12:55:32.458Z,100603.28
2023-05-15T12:58:08.272Z,100618.41
2023-05-15T13:00:36.257Z,100625.63
2023-05-15T13:03:03.563Z,100533.34
2023-05-15T13:05:33.476Z,100588.38
2023-05-15T13:08:00.808Z,100616.50
2023-05-15T13:10:27.365Z,100611.81
2023-05-15T13:12:56.333Z,100610.91
2023-05-15T13:15:45.401Z,100639.84
2023-05-15T13:18:18.535Z,100630.06
2023-05-15T13:20:51.627Z,100646.69
2023-05-15T13:23:20.236Z,100620.09
2023-05-15T13:25:47.188Z,100634.22
2023-05-15T13:28:13.777Z,100610.56
2023-05-15T13:30:43.572Z,100561.69
2023-05-15T13:33:11.733Z,100597.63
2023-05-15T13:35:39.090Z,100636.16
2023-05-15T13:38:05.622Z,100640.84
2023-05-15T13:40:38.321Z,100624.38
2023-05-15T13:43:06.397Z,100533.53
2023-05-15T13:45:32.918Z,100610.91
2023-05-15T13:47:59.336Z,100572.19
2023-05-15T13:50:26.147Z,100541.22
2023-05-15T13:52:54.253Z,100616.09
2023-05-15T13:55:22.968Z,100582.94
2023-05-15T13:57:49.740Z,100625.47
2023-05-15T14:00:17.274Z,100555.69
2023-05-15T14:02:44.554Z,100649.25
2023-05-15T14:05:12.843Z,100623.06
2023-05-15T14:07:39.854Z,100634.84
2023-05-15T14:10:07.176Z,100613.06
2023-05-15T14:12:33.974Z,100640.97
2023-05-15T14:15:00.953Z,100646.72
2023-05-15T14:17:28.371Z,100645.72
2023-05-15T14:19:54.994Z,100572.81
2023-05-15T14:22:24.631Z,100586.75
2023-05-15T14:24:52.433Z,100652.16
2023-05-15T14:27:19.127Z,100571.00
2023-05-15T14:29:45.832Z,100657.56
2023-05-15T14:32:12.242Z,100640.19
2023-05-15T14:34:38.724Z,100626.28
2023-05-15T14:37:05.147Z,100671.22
2023-05-15T14:39:31.832Z,100645.91
2023-05-15T14:41:58.416Z,100675.41
2023-05-15T14:44:24.744Z,100672.25
2023-05-15T14:47:13.706Z,100679.16
2023-05-15T14:49:40.482Z,100633.75
2023-05-15T14:52:09.542Z,100655.97
2023-05-15T14:54:38.597Z,100679.19
2023-05-15T14:57:05.278Z,100591.22
2023-05-15T14:59:31.609Z,100595.72
2023-05-15T15:01:58.040Z,100656.16
2023-05-15T15:04:26.462Z,100662.44
2023-05-15T15:06:52.856Z,100658.63
2023-05-15T15:09:21.253Z,100651.06
2023-05-15T15:11:48.275Z,100664.63
2023-05-15T15:14:14.587Z,100675.34
2023-05-15T15:16:41.321Z,100656.09
2023-05-15T15:19:07.773Z,100641.00
2023-05-15T15:21:34.624Z,100608.91
2023-05-15T15:24:00.966Z,100654.06
2023-05-15T15:26:27.337Z,100622.13
2023-05-15T15:28:55.120Z,100652.34
2023-05-15T15:31:21.492Z,100653.69
2023-05-15T15:33:48.268Z,100666.78
2023-05-15T15:36:14.590Z,100617.69
2023-05-15T15:38:43.596Z,100651.22
2023-05-15T15:41:10.001Z,100643.56
2023-05-15T15:43:36.335Z,100642.50
2023-05-15T15:46:02.741Z,100668.53
2023-05-15T15:48:29.383Z,100629.94
2023-05-15T15:50:56.558Z,100625.41
2023-05-15T15:53:23.474Z,100628.25
2023-05-15T15:55:49.896Z,100655.13
2023-05-15T15:58:16.311Z,100636.13
2023-05-15T16:00:42.700Z,100645.44
2023-05-15T16:03:09.076Z,100595.47
2023-05-15T16:05:35.549Z,100623.56
2023-05-15T16:08:01.942Z,100653.09
2023-05-15T16:10:28.494Z,100644.06
2023-05-15T16:12:54.976Z,100665.03
2023-05-15T16:15:23.715Z,100686.28
2023-05-15T16:17:53.494Z,100694.75
2023-05-15T16:20:20.824Z,100644.28
2023-05-15T16:22:47.199Z,100664.44
2023-05-15T16:25:13.512Z,100567.50
2023-05-15T16:27:39.877Z,100638.47
2023-05-15T16:30:06.842Z,100659.56
2023-05-15T16:32:33.996Z,100670.66
2023-05-15T16:35:00.583Z,100654.34
2023-05-15T16:37:26.898Z,100671.19
2023-05-15T16:39:53.254Z,100675.94
2023-05-15T16:42:19.703Z,100652.41
2023-05-15T16:44:46.062Z,100590.34
2023-05-15T16:47:12.458Z,100692.72
2023-05-15T16:49:38.797Z,100671.72
2023-05-15T16:52:05.170Z,100626.38
2023-05-15T16:54:31.568Z,100673.81
2023-05-15T16:56:57.943Z,100676.47
2023-05-15T16:59:24.311Z,100710.44
2023-05-15T17:01:50.963Z,100605.00
2023-05-15T17:04:17.373Z,100594.03
2023-05-15T17:06:43.690Z,100671.56
2023-05-15T17:09:10.073Z,100694.38
2023-05-15T17:11:36.408Z,100688.63
2023-05-15T17:14:02.839Z,100691.56
2023-05-15T17:16:29.307Z,100707.75
2023-05-15T17:18:55.739Z,100697.81
2023-05-15T17:21:22.207Z,100695.28
2023-05-15T17:23:48.667Z,100698.56
2023-05-15T17:26:14.981Z,100710.03
2023-05-15T17:28:41.326Z,100714.63
2023-05-15T17:31:10.049Z,100729.34
2023-05-15T17:33:36.410Z,100638.56
2023-05-15T17:36:02.865Z,100630.16
2023-05-15T17:38:29.327Z,100634.56
2023-05-15T17:40:55.819Z,100663.22
2023-05-15T17:43:22.176Z,100683.31
2023-05-15T17:45:48.520Z,100699.66
2023-05-15T17:48:15.297Z,100726.84
2023-05-15T17:50:42.101Z,100676.25
2023-05-15T17:53:08.415Z,100649.91
2023-05-15T17:55:35.237Z,100695.28
2023-05-15T17:58:01.581Z,100683.94
2023-05-15T18:00:27.903Z,100650.13
2023-05-15T18:02:54.312Z,100772.47
2023-05-15T18:05:20.704Z,100718.44
2023-05-15T18:07:48.055Z,100736.59
2023-05-15T18:10:14.414Z,100750.59
2023-05-15T18:12:40.910Z,100726.88
2023-05-15T18:15:07.849Z,100740.72
2023-05-15T18:17:34.216Z,100730.16
2023-05-15T18:20:01.657Z,100746.47
2023-05-15T18:22:27.963Z,100735.44
2023-05-15T18:24:54.356Z,100775.19
2023-05-15T18:27:20.779Z,100690.97
2023-05-15T18:29:47.207Z,100801.41
2023-05-15T18:32:13.631Z,100694.94
2023-05-15T18:34:40.199Z,100725.31
2023-05-15T18:37:06.588Z,100688.56
2023-05-15T18:39:32.911Z,100757.72
2023-05-15T18:42:00.307Z,100808.00
2023-05-15T18:44:26.799Z,100685.84
2023-05-15T18:46:53.256Z,100750.81
2023-05-15T18:49:19.627Z,100759.91
2023-05-15T18:51:46.110Z,100819.75
2023-05-15T18:54:12.492Z,100828.06
2023-05-15T18:56:40.583Z,100828.91
2023-05-15T18:59:08.462Z,100863.75
2023-05-15T19:01:41.501Z,100837.47
2023-05-15T19:04:08.778Z,100794.94
2023-05-15T19:06:35.202Z,100783.44
2023-05-15T19:09:01.582Z,100778.69
2023-05-15T19:11:28.297Z,100765.63
2023-05-15T19:13:54.712Z,100838.56
2023-05-15T19:16:22.395Z,100865.69
2023-05-15T19:18:48.818Z,100775.03
2023-05-15T19:21:15.669Z,100788.69
2023-05-15T19:23:42.035Z,100857.91
2023-05-15T19:26:10.766Z,100885.06
2023-05-15T19:28:37.141Z,100860.53
2023-05-15T19:31:04.419Z,100874.63
2023-05-15T19:33:30.916Z,100864.53
2023-05-15T19:35:57.235Z,100873.38
2023-05-15T19:38:23.603Z,100840.47
2023-05-15T19:40:50.120Z,100876.47
2023-05-15T19:43:16.495Z,100863.81
2023-05-15T19:45:43.475Z,100853.88
2023-05-15T19:48:10.086Z,100859.38
2023-05-15T19:50:39.015Z,100914.78
2023-05-15T19:53:05.552Z,100851.84
2023-05-15T19:55:32.019Z,100758.97
2023-05-15T19:57:58.414Z,100776.66
2023-05-15T20:00:25.063Z,100911.72
2023-05-15T20:02:52.692Z,100894.59
2023-05-15T20:05:19.254Z,100736.81
2023-05-15T20:07:46.186Z,100836.97
2023-05-15T20:10:13.893Z,100889.38
2023-05-15T20:12:40.256Z,100898.78
2023-05-15T20:15:07.435Z,100900.84
2023-05-15T20:17:33.810Z,100881.78
2023-05-15T20:20:00.986Z,100808.53
2023-05-15T20:22:27.437Z,100899.53
2023-05-15T20:24:54.344Z,100823.66
2023-05-15T20:27:20.793Z,100870.44
2023-05-15T20:29:47.135Z,100916.78
2023-05-15T20:32:13.803Z,100824.91
2023-05-15T20:34:42.652Z,100904.81
2023-05-15T20:37:09.203Z,100931.59
2023-05-15T20:39:35.532Z,100903.06
2023-05-15T20:42:01.861Z,100895.69
2023-05-15T20:44:29.499Z,100918.25
2023-05-15T20:46:56.029Z,100911.41
2023-05-15T20:49:22.345Z,100925.00
2023-05-15T20:51:48.880Z,100901.88
2023-05-15T20:54:16.012Z,100901.59
2023-05-15T20:56:42.389Z,100900.56
2023-05-15T20:59:08.872Z,100841.31
2023-05-15T21:01:36.787Z,100832.31
2023-05-15T21:04:03.327Z,100836.22
2023-05-15T21:06:29.713Z,100912.22
2023-05-15T21:08:56.063Z,100900.00
2023-05-15T21:11:22.566Z,100901.69
2023-05-15T21:13:48.933Z,100882.41
2023-05-15T21:16:15.363Z,100921.78
2023-05-15T21:18:41.710Z,100891.78
2023-05-15T21:21:08.035Z,100873.06
2023-05-15T21:23:36.428Z,100908.03
2023-05-15T21:26:03.460Z,100910.31
2023-05-15T21:28:30.174Z,100950.28
2023-05-15T21:30:57.077Z,100912.50
2023-05-15T21:33:23.521Z,100940.81
2023-05-15T21:35:49.905Z,100834.97
2023-05-15T21:38:16.219Z,100835.63
2023-05-15T21:40:42.610Z,100911.38
2023-05-15T21:43:09.312Z,100931.59
2023-05-15T21:45:35.821Z,100920.94
2023-05-15T21:48:02.320Z,100917.19
2023-05-15T21:50:28.877Z,100949.47
2023-05-15T21:52:55.573Z,100940.09
2023-05-15T21:55:21.936Z,100957.91
2023-05-15T21:57:48.284Z,100947.38
2023-05-15T22:00:16.095Z,100932.94
2023-05-15T22:02:42.731Z,100961.44
2023-05-15T22:05:09.323Z,100923.53
2023-05-15T22:07:35.708Z,100964.50
2023-05-15T22:10:03.663Z,100830.75
2023-05-15T22:12:32.183Z,100980.69
2023-05-15T22:14:59.677Z,100868.00
2023-05-15T22:17:28.798Z,100957.56
2023-05-15T22:20:02.464Z,100926.63
2023-05-15T22:22:29.015Z,100952.72
2023-05-15T22:24:55.848Z,100960.50
2023-05-15T22:27:22.152Z,100855.97
2023-05-15T22:29:48.471Z,100926.72
2023-05-15T22:32:14.901Z,100936.41
2023-05-15T22:34:41.292Z,100955.78
2023-05-15T22:37:07.761Z,100931.25
2023-05-15T22:39:34.103Z,100973.84
2023-05-15T22:42:00.547Z,100942.31
2023-05-15T22:44:27.474Z,100967.03
2023-05-15T22:46:54.093Z,100944.69
2023-05-15T22:49:25.359Z,100945.25
2023-05-15T22:51:53.955Z,100905.50
2023-05-15T22:54:21.731Z,100972.34
2023-05-15T22:56:49.922Z,100976.50
2023-05-15T22:59:16.539Z,100988.28
2023-05-15T23:01:44.495Z,100949.38
2023-05-15T23:04:11.581Z,100989.03
2023-05-15T23:06:38.364Z,100955.69
2023-05-15T23:09:05.011Z,100973.81
2023-05-15T23:11:31.488Z,100908.50
2023-05-15T23:13:58.179Z,100991.97
2023-05-15T23:16:25.517Z,100968.22
2023-05-15T23:18:54.743Z,100964.47
2023-05-15T23:21:21.300Z,100965.78
2023-05-15T23:23:47.957Z,100989.13
2023-05-15T23:26:14.594Z,100994.00
2023-05-15T23:28:41.088Z,100966.25
2023-05-15T23:31:07.556Z,100993.53
2023-05-15T23:33:34.225Z,100926.28
2023-05-15T23:36:00.927Z,100933.19
2023-05-15T23:38:27.712Z,100953.75
2023-05-15T23:40:54.036Z,100903.84
2023-05-15T23:43:20.713Z,100881.50
2023-05-15T23:45:47.059Z,101002.94
2023-05-15T23:48:13.489Z,100994.53
2023-05-15T23:50:39.927Z,100982.78
2023-05-15T23:53:06.373Z,100987.00
2023-05-15T23:55:33.082Z,101011.19
2023-05-15T23:57:59.425Z,101026.03
